createdAt,value
2016-10-30T00:00:27.075Z,0
2016-10-30T00:01:27.092Z,0
2016-10-30T00:02:27.107Z,0
2016-10-30T00:03:27.118Z,0
2016-10-30T00:04:27.147Z,0
2016-10-30T00:05:27.159Z,0
2016-10-30T00:06:27.181Z,0
2016-10-30T00:07:27.189Z,0
2016-10-30T00:08:27.198Z,0
2016-10-30T00:09:27.212Z,0
2016-10-30T00:10:27.229Z,0
2016-10-30T00:11:27.224Z,0
2016-10-30T00:12:27.263Z,0
2016-10-30T00:13:27.276Z,0
2016-10-30T00:14:27.310Z,0
2016-10-30T00:15:27.305Z,0
2016-10-30T00:16:27.331Z,0
2016-10-30T00:17:27.329Z,0
2016-10-30T00:18:27.364Z,0
2016-10-30T00:19:27.379Z,0
2016-10-30T00:20:27.389Z,0
2016-10-30T00:21:27.405Z,0
2016-10-30T00:22:27.409Z,0
2016-10-30T00:23:27.472Z,0
2016-10-30T00:24:27.439Z,0
2016-10-30T00:25:27.457Z,0
2016-10-30T00:26:27.479Z,0
2016-10-30T00:27:27.517Z,0
2016-10-30T00:28:27.516Z,0
2016-10-30T00:29:27.550Z,0
2016-10-30T00:30:27.559Z,0
2016-10-30T00:31:27.580Z,0
2016-10-30T00:32:27.575Z,0
2016-10-30T00:33:27.586Z,0
2016-10-30T00:34:27.585Z,0
2016-10-30T00:35:27.663Z,0
2016-10-30T00:36:27.627Z,0
2016-10-30T00:37:27.658Z,0
2016-10-30T00:38:27.670Z,0
2016-10-30T00:39:27.719Z,0
2016-10-30T00:40:27.704Z,0
2016-10-30T00:41:27.705Z,0
2016-10-30T00:42:27.737Z,0
2016-10-30T00:43:27.736Z,0
2016-10-30T00:44:27.744Z,0
2016-10-30T00:45:27.786Z,0
2016-10-30T00:46:27.769Z,0
2016-10-30T00:47:27.803Z,0
2016-10-30T00:48:27.828Z,0
2016-10-30T00:49:27.817Z,0
2016-10-30T00:50:27.850Z,0
2016-10-30T00:51:27.866Z,0
2016-10-30T00:52:27.900Z,0
2016-10-30T00:53:27.891Z,0
2016-10-30T00:54:27.931Z,0
2016-10-30T00:55:27.912Z,0
2016-10-30T00:56:27.944Z,0
2016-10-30T00:57:27.957Z,0
2016-10-30T00:58:27.973Z,0
2016-10-30T00:59:27.983Z,0
2016-10-30T01:00:28.009Z,0
2016-10-30T01:01:28.025Z,0
2016-10-30T01:02:28.045Z,0
2016-10-30T01:03:28.043Z,0
2016-10-30T01:04:28.055Z,0
2016-10-30T01:05:28.093Z,0
2016-10-30T01:06:28.140Z,0
2016-10-30T01:07:28.112Z,0
2016-10-30T01:08:28.106Z,0
2016-10-30T01:09:28.188Z,0
2016-10-30T01:10:28.153Z,0
2016-10-30T01:11:28.167Z,0
2016-10-30T01:12:28.200Z,0
2016-10-30T01:13:28.197Z,0
2016-10-30T01:14:28.260Z,0
2016-10-30T01:15:28.247Z,0
2016-10-30T01:16:28.263Z,0
2016-10-30T01:17:28.255Z,0
2016-10-30T01:18:28.280Z,0
2016-10-30T01:19:28.306Z,0
2016-10-30T01:20:28.313Z,0
2016-10-30T01:21:28.322Z,0
2016-10-30T01:22:28.345Z,0
2016-10-30T01:23:28.354Z,0
2016-10-30T01:24:28.367Z,0
2016-10-30T01:25:28.388Z,0
2016-10-30T01:26:28.417Z,0
2016-10-30T01:27:28.412Z,0
2016-10-30T01:28:28.427Z,0
2016-10-30T01:29:28.463Z,0
2016-10-30T01:30:28.461Z,0
2016-10-30T01:31:28.485Z,0
2016-10-30T01:32:28.503Z,0
2016-10-30T01:33:28.508Z,0
2016-10-30T01:34:28.535Z,0
2016-10-30T01:35:28.540Z,0
2016-10-30T01:36:28.561Z,0
2016-10-30T01:37:28.574Z,0
2016-10-30T01:38:28.595Z,0
2016-10-30T01:39:28.595Z,0
2016-10-30T01:40:28.632Z,0
2016-10-30T01:41:28.650Z,0
2016-10-30T01:42:28.655Z,0
2016-10-30T01:43:28.680Z,0
2016-10-30T01:44:28.687Z,0
2016-10-30T01:45:28.700Z,0
2016-10-30T01:46:28.718Z,0
2016-10-30T01:47:28.725Z,0
2016-10-30T01:48:28.742Z,0
2016-10-30T01:49:28.756Z,0
2016-10-30T01:50:28.777Z,0
2016-10-30T01:51:28.789Z,0
2016-10-30T01:52:28.809Z,0
2016-10-30T01:53:28.821Z,0
2016-10-30T01:54:28.827Z,0
2016-10-30T01:55:28.852Z,0
2016-10-30T01:56:28.873Z,0
2016-10-30T01:57:28.874Z,0
2016-10-30T01:58:28.886Z,0
2016-10-30T01:59:28.901Z,0
2016-10-30T02:00:28.928Z,0
2016-10-30T02:01:28.948Z,0
2016-10-30T02:02:28.960Z,0
2016-10-30T02:03:28.987Z,0
2016-10-30T02:04:28.976Z,0
2016-10-30T02:05:29.002Z,0
2016-10-30T02:06:29.009Z,0
2016-10-30T02:07:29.012Z,0
2016-10-30T02:08:29.049Z,0
2016-10-30T02:09:29.067Z,0
2016-10-30T02:10:29.073Z,0
2016-10-30T02:11:29.091Z,0
2016-10-30T02:12:29.102Z,0
2016-10-30T02:13:29.120Z,0
2016-10-30T02:14:29.137Z,0
2016-10-30T02:15:29.137Z,0
2016-10-30T02:16:29.178Z,0
2016-10-30T02:17:29.196Z,0
2016-10-30T02:18:29.196Z,0
2016-10-30T02:19:29.208Z,0
2016-10-30T02:20:29.221Z,0
2016-10-30T02:21:29.244Z,0
2016-10-30T02:22:29.287Z,0
2016-10-30T02:23:29.260Z,0
2016-10-30T02:24:29.287Z,0
2016-10-30T02:25:29.297Z,0
2016-10-30T02:26:29.324Z,0
2016-10-30T02:27:29.339Z,0
2016-10-30T02:28:29.329Z,0
2016-10-30T02:29:29.363Z,0
2016-10-30T02:30:29.369Z,0
2016-10-30T02:31:29.386Z,0
2016-10-30T02:32:29.400Z,0
2016-10-30T02:33:29.421Z,0
2016-10-30T02:34:29.424Z,0
2016-10-30T02:35:29.443Z,0
2016-10-30T02:36:29.458Z,0
2016-10-30T02:37:29.480Z,0
2016-10-30T02:38:29.504Z,0
2016-10-30T02:39:29.518Z,0
2016-10-30T02:40:29.518Z,0
2016-10-30T02:41:29.553Z,0
2016-10-30T02:42:29.564Z,0
2016-10-30T02:43:29.582Z,0
2016-10-30T02:44:29.591Z,0
2016-10-30T02:45:29.612Z,0
2016-10-30T02:46:29.616Z,0
2016-10-30T02:47:29.629Z,0
2016-10-30T02:48:29.651Z,0
2016-10-30T02:49:29.676Z,0
2016-10-30T02:50:29.688Z,0
2016-10-30T02:51:29.701Z,0
2016-10-30T02:52:29.720Z,0
2016-10-30T02:53:29.720Z,0
2016-10-30T02:54:29.756Z,0
2016-10-30T02:55:29.786Z,0
2016-10-30T02:56:29.782Z,0
2016-10-30T02:57:29.786Z,0
2016-10-30T02:58:29.783Z,0
2016-10-30T02:59:29.816Z,0
2016-10-30T03:00:29.838Z,0
2016-10-30T03:01:29.850Z,0
2016-10-30T03:02:29.866Z,0
2016-10-30T03:03:29.866Z,0
2016-10-30T03:04:29.905Z,0
2016-10-30T03:05:29.892Z,0
2016-10-30T03:06:29.920Z,0
2016-10-30T03:07:29.998Z,0
2016-10-30T03:08:29.941Z,0
2016-10-30T03:09:29.985Z,0
2016-10-30T03:10:29.981Z,0
2016-10-30T03:11:30.004Z,0
2016-10-30T03:12:30.012Z,0
2016-10-30T03:13:30.048Z,0
2016-10-30T03:14:30.034Z,0
2016-10-30T03:15:30.069Z,0
2016-10-30T03:16:30.064Z,0
2016-10-30T03:17:30.085Z,0
2016-10-30T03:18:30.103Z,0
2016-10-30T03:19:30.170Z,0
2016-10-30T03:20:30.135Z,0
2016-10-30T03:21:30.490Z,0
2016-10-30T03:22:30.150Z,0
2016-10-30T03:23:30.183Z,0
2016-10-30T03:24:30.192Z,0
2016-10-30T03:25:30.212Z,0
2016-10-30T03:26:30.268Z,0
2016-10-30T03:27:30.252Z,0
2016-10-30T03:28:30.281Z,0
2016-10-30T03:29:30.281Z,0
2016-10-30T03:30:30.294Z,0
2016-10-30T03:31:30.315Z,0
2016-10-30T03:32:30.321Z,0
2016-10-30T03:33:30.337Z,0
2016-10-30T03:34:30.356Z,0
2016-10-30T03:35:30.361Z,0
2016-10-30T03:36:30.380Z,0
2016-10-30T03:37:30.406Z,0
2016-10-30T03:38:30.398Z,0
2016-10-30T03:39:30.439Z,0
2016-10-30T03:40:30.475Z,0
2016-10-30T03:41:30.460Z,0
2016-10-30T03:42:30.456Z,0
2016-10-30T03:43:30.483Z,0
2016-10-30T03:44:30.504Z,0
2016-10-30T03:45:30.516Z,0
2016-10-30T03:46:30.532Z,0
2016-10-30T03:47:30.544Z,0
2016-10-30T03:48:30.560Z,0
2016-10-30T03:49:30.578Z,0
2016-10-30T03:50:30.591Z,0
2016-10-30T03:51:30.606Z,0
2016-10-30T03:52:30.611Z,0
2016-10-30T03:53:30.643Z,0
2016-10-30T03:54:30.659Z,0
2016-10-30T03:55:30.664Z,0
2016-10-30T03:56:30.710Z,0
2016-10-30T03:57:30.694Z,0
2016-10-30T03:58:30.713Z,0
2016-10-30T03:59:30.726Z,0
2016-10-30T04:01:45.623Z,0
2016-10-30T04:02:30.792Z,0
2016-10-30T04:03:30.809Z,0
2016-10-30T04:04:30.823Z,0
2016-10-30T04:05:30.848Z,0
2016-10-30T04:06:30.851Z,0
2016-10-30T04:07:30.868Z,0
2016-10-30T04:08:30.883Z,0
2016-10-30T04:09:30.972Z,0
2016-10-30T04:10:30.922Z,0
2016-10-30T04:11:30.926Z,0
2016-10-30T04:12:30.947Z,0
2016-10-30T04:13:30.999Z,0
2016-10-30T04:14:30.978Z,0
2016-10-30T04:15:30.996Z,0
2016-10-30T04:16:31.001Z,0
2016-10-30T04:17:31.019Z,0
2016-10-30T04:18:31.017Z,0
2016-10-30T04:19:31.050Z,0
2016-10-30T04:20:31.045Z,0
2016-10-30T04:21:31.084Z,0
2016-10-30T04:22:31.101Z,0
2016-10-30T04:23:31.109Z,0
2016-10-30T04:24:31.120Z,0
2016-10-30T04:25:31.147Z,0
2016-10-30T04:26:31.147Z,0
2016-10-30T04:27:31.175Z,0
2016-10-30T04:28:31.180Z,0
2016-10-30T04:29:31.189Z,0
2016-10-30T04:30:31.216Z,0
2016-10-30T04:31:31.246Z,0
2016-10-30T04:32:31.230Z,0
2016-10-30T04:33:31.259Z,0
2016-10-30T04:34:31.282Z,0
2016-10-30T04:35:31.287Z,0
2016-10-30T04:36:31.308Z,0
2016-10-30T04:37:31.315Z,0
2016-10-30T04:38:31.336Z,0
2016-10-30T04:39:31.346Z,0
2016-10-30T04:40:31.359Z,0
2016-10-30T04:41:31.390Z,0
2016-10-30T04:42:31.392Z,0
2016-10-30T04:43:31.408Z,0
2016-10-30T04:44:31.425Z,0
2016-10-30T04:45:31.422Z,0
2016-10-30T04:46:31.456Z,0
2016-10-30T04:47:31.507Z,0
2016-10-30T04:48:31.522Z,0
2016-10-30T04:49:31.542Z,0
2016-10-30T04:50:31.550Z,0
2016-10-30T04:51:31.520Z,0
2016-10-30T04:52:31.544Z,0
2016-10-30T04:53:31.563Z,0
2016-10-30T04:54:31.574Z,0
2016-10-30T04:55:31.589Z,0
2016-10-30T04:56:31.593Z,0
2016-10-30T04:57:31.637Z,0
2016-10-30T04:58:31.617Z,0
2016-10-30T04:59:31.699Z,0
2016-10-30T05:00:31.665Z,0
2016-10-30T05:01:31.665Z,0
2016-10-30T05:02:31.704Z,0
2016-10-30T05:03:31.719Z,0
2016-10-30T05:04:31.732Z,0
2016-10-30T05:05:31.746Z,0
2016-10-30T05:06:31.768Z,0
2016-10-30T05:07:31.783Z,0
2016-10-30T05:08:31.781Z,0
2016-10-30T05:09:31.773Z,0
2016-10-30T05:10:31.847Z,0
2016-10-30T05:11:31.831Z,0
2016-10-30T05:12:31.836Z,0
2016-10-30T05:13:31.862Z,0
2016-10-30T05:14:31.871Z,0
2016-10-30T05:15:31.887Z,0
2016-10-30T05:16:31.903Z,0
2016-10-30T05:17:31.925Z,0
2016-10-30T05:18:31.942Z,0
2016-10-30T05:19:31.957Z,0
2016-10-30T05:20:31.972Z,0
2016-10-30T05:21:31.984Z,0
2016-10-30T05:22:31.985Z,0
2016-10-30T05:23:32.016Z,0
2016-10-30T05:24:32.024Z,0
2016-10-30T05:25:32.057Z,0
2016-10-30T05:26:32.055Z,0
2016-10-30T05:27:32.073Z,0
2016-10-30T05:28:32.077Z,0
2016-10-30T05:29:32.105Z,0
2016-10-30T05:30:32.126Z,0
2016-10-30T05:31:32.127Z,0
2016-10-30T05:32:32.141Z,0
2016-10-30T05:33:32.157Z,0
2016-10-30T05:34:32.188Z,0
2016-10-30T05:35:32.171Z,0
2016-10-30T05:36:32.200Z,0
2016-10-30T05:37:32.208Z,0
2016-10-30T05:38:32.240Z,0
2016-10-30T05:39:32.253Z,0
2016-10-30T05:40:32.255Z,0
2016-10-30T05:41:32.280Z,0
2016-10-30T05:42:32.312Z,0
2016-10-30T05:43:32.315Z,0
2016-10-30T05:44:32.337Z,0
2016-10-30T05:45:32.331Z,0
2016-10-30T05:46:32.354Z,0
2016-10-30T05:47:32.365Z,4
2016-10-30T05:48:32.394Z,4
2016-10-30T05:49:32.383Z,4
2016-10-30T05:50:32.416Z,0
2016-10-30T05:51:32.421Z,4
2016-10-30T05:52:32.459Z,4
2016-10-30T05:53:32.460Z,4
2016-10-30T05:54:32.469Z,8
2016-10-30T05:55:32.495Z,8
2016-10-30T05:56:32.514Z,8
2016-10-30T05:57:32.513Z,12
2016-10-30T05:58:32.535Z,12
2016-10-30T05:59:32.561Z,16
2016-10-30T06:00:32.578Z,20
2016-10-30T06:01:32.595Z,24
2016-10-30T06:02:32.605Z,24
2016-10-30T06:03:32.625Z,32
2016-10-30T06:04:32.631Z,36
2016-10-30T06:05:32.646Z,40
2016-10-30T06:06:32.661Z,48
2016-10-30T06:07:32.668Z,52
2016-10-30T06:08:32.702Z,56
2016-10-30T06:09:32.694Z,60
2016-10-30T06:10:32.721Z,64
2016-10-30T06:11:32.749Z,72
2016-10-30T06:12:32.757Z,76
2016-10-30T06:13:32.759Z,80
2016-10-30T06:14:32.791Z,88
2016-10-30T06:15:32.804Z,100
2016-10-30T06:16:32.810Z,108
2016-10-30T06:17:32.834Z,116
2016-10-30T06:18:32.859Z,124
2016-10-30T06:19:32.917Z,148
2016-10-30T06:20:32.869Z,172
2016-10-30T06:21:32.890Z,184
2016-10-30T06:22:32.905Z,192
2016-10-30T06:23:32.920Z,208
2016-10-30T06:24:32.934Z,228
2016-10-30T06:25:32.945Z,252
2016-10-30T06:26:32.962Z,252
2016-10-30T06:27:32.995Z,248
2016-10-30T06:28:32.994Z,256
2016-10-30T06:29:33.005Z,268
2016-10-30T06:30:33.020Z,280
2016-10-30T06:31:33.049Z,296
2016-10-30T06:32:33.048Z,304
2016-10-30T06:33:33.062Z,316
2016-10-30T06:34:33.091Z,344
2016-10-30T06:35:33.099Z,380
2016-10-30T06:36:33.116Z,408
2016-10-30T06:37:33.125Z,428
2016-10-30T06:38:33.147Z,428
2016-10-30T06:39:33.146Z,432
2016-10-30T06:40:33.191Z,436
2016-10-30T06:41:33.212Z,432
2016-10-30T06:42:33.256Z,432
2016-10-30T06:43:33.223Z,432
2016-10-30T06:44:33.251Z,436
2016-10-30T06:45:33.262Z,448
2016-10-30T06:46:33.267Z,460
2016-10-30T06:47:33.284Z,472
2016-10-30T06:48:33.307Z,484
2016-10-30T06:49:33.310Z,496
2016-10-30T06:50:33.339Z,512
2016-10-30T06:51:33.359Z,544
2016-10-30T06:52:33.408Z,564
2016-10-30T06:53:33.382Z,592
2016-10-30T06:54:33.390Z,636
2016-10-30T06:55:33.414Z,692
2016-10-30T06:56:33.436Z,780
2016-10-30T06:57:33.444Z,908
2016-10-30T06:58:33.475Z,1024
2016-10-30T06:59:33.468Z,1108
2016-10-30T07:00:33.491Z,1180
2016-10-30T07:01:33.519Z,1268
2016-10-30T07:02:33.502Z,1344
2016-10-30T07:03:33.521Z,1412
2016-10-30T07:04:33.550Z,1476
2016-10-30T07:05:33.565Z,1656
2016-10-30T07:06:33.600Z,1848
2016-10-30T07:07:33.590Z,1968
2016-10-30T07:08:33.592Z,2036
2016-10-30T07:09:33.616Z,2060
2016-10-30T07:10:33.636Z,2040
2016-10-30T07:11:33.645Z,2032
2016-10-30T07:12:33.674Z,2024
2016-10-30T07:13:33.723Z,1984
2016-10-30T07:14:33.692Z,1944
2016-10-30T07:15:33.710Z,1856
2016-10-30T07:16:33.720Z,1748
2016-10-30T07:17:33.743Z,1704
2016-10-30T07:18:33.759Z,1728
2016-10-30T07:19:33.763Z,1720
2016-10-30T07:20:33.797Z,1748
2016-10-30T07:21:33.821Z,1784
2016-10-30T07:22:33.823Z,1788
2016-10-30T07:23:33.824Z,1772
2016-10-30T07:24:33.897Z,1808
2016-10-30T07:25:33.902Z,1828
2016-10-30T07:26:33.895Z,1948
2016-10-30T07:27:33.908Z,1944
2016-10-30T07:28:33.934Z,1832
2016-10-30T07:29:33.930Z,1760
2016-10-30T07:30:33.943Z,1704
2016-10-30T07:31:33.978Z,1632
2016-10-30T07:32:33.985Z,1568
2016-10-30T07:33:33.999Z,1492
2016-10-30T07:34:34.008Z,1452
2016-10-30T07:35:34.020Z,1504
2016-10-30T07:36:34.038Z,1580
2016-10-30T07:37:34.070Z,1600
2016-10-30T07:38:34.063Z,1600
2016-10-30T07:39:34.107Z,1720
2016-10-30T07:40:34.099Z,1920
2016-10-30T07:41:34.125Z,1996
2016-10-30T07:42:34.150Z,1840
2016-10-30T07:43:34.158Z,1696
2016-10-30T07:44:34.203Z,1816
2016-10-30T07:45:34.191Z,1896
2016-10-30T07:46:34.233Z,1924
2016-10-30T07:47:34.226Z,1992
2016-10-30T07:48:34.249Z,2112
2016-10-30T07:49:34.255Z,2188
2016-10-30T07:50:34.279Z,2196
2016-10-30T07:51:34.288Z,2152
2016-10-30T07:52:34.296Z,2012
2016-10-30T07:53:34.324Z,1896
2016-10-30T07:54:34.348Z,1960
2016-10-30T07:55:34.354Z,1992
2016-10-30T07:56:34.363Z,1980
2016-10-30T07:57:34.419Z,1988
2016-10-30T07:58:34.390Z,2012
2016-10-30T07:59:34.426Z,2048
2016-10-30T08:00:34.432Z,2088
2016-10-30T08:01:34.449Z,2068
2016-10-30T08:02:34.466Z,2064
2016-10-30T08:03:34.491Z,2192
2016-10-30T08:04:34.493Z,2396
2016-10-30T08:05:34.519Z,2580
2016-10-30T08:06:34.519Z,2692
2016-10-30T08:07:34.542Z,2884
2016-10-30T08:08:34.559Z,3140
2016-10-30T08:09:34.583Z,3300
2016-10-30T08:10:34.604Z,3356
2016-10-30T08:11:34.611Z,3356
2016-10-30T08:12:34.621Z,3392
2016-10-30T08:13:34.675Z,3432
2016-10-30T08:14:34.656Z,3552
2016-10-30T08:15:34.671Z,3788
2016-10-30T08:16:34.690Z,3768
2016-10-30T08:17:34.701Z,3344
2016-10-30T08:18:34.732Z,3240
2016-10-30T08:19:34.729Z,3276
2016-10-30T08:20:34.768Z,3304
2016-10-30T08:21:34.775Z,3444
2016-10-30T08:22:34.792Z,3536
2016-10-30T08:23:34.801Z,3636
2016-10-30T08:24:34.945Z,3724
2016-10-30T08:25:34.835Z,3648
2016-10-30T08:26:34.847Z,3204
2016-10-30T08:27:34.857Z,2740
2016-10-30T08:28:34.897Z,2400
2016-10-30T08:29:34.894Z,2152
2016-10-30T08:30:34.919Z,2076
2016-10-30T08:31:34.940Z,2364
2016-10-30T08:32:34.960Z,2880
2016-10-30T08:33:34.974Z,3592
2016-10-30T08:34:34.983Z,4280
2016-10-30T08:35:35.007Z,4712
2016-10-30T08:36:35.030Z,4988
2016-10-30T08:37:35.041Z,5016
2016-10-30T08:38:35.053Z,4620
2016-10-30T08:39:35.063Z,4212
2016-10-30T08:40:35.074Z,3800
2016-10-30T08:41:35.106Z,3488
2016-10-30T08:42:35.101Z,3412
2016-10-30T08:43:35.158Z,3268
2016-10-30T08:44:35.153Z,3056
2016-10-30T08:45:35.166Z,2868
2016-10-30T08:46:35.170Z,2780
2016-10-30T08:47:35.192Z,2828
2016-10-30T08:48:35.219Z,3008
2016-10-30T08:49:35.232Z,3208
2016-10-30T08:50:35.239Z,3348
2016-10-30T08:51:35.270Z,3468
2016-10-30T08:52:35.291Z,3588
2016-10-30T08:53:35.298Z,3700
2016-10-30T08:54:35.304Z,3764
2016-10-30T08:55:35.325Z,3744
2016-10-30T08:56:35.351Z,3616
2016-10-30T08:57:35.363Z,3532
2016-10-30T08:58:35.360Z,3552
2016-10-30T08:59:35.397Z,3592
2016-10-30T09:00:35.412Z,3540
2016-10-30T09:01:35.420Z,3292
2016-10-30T09:02:35.451Z,3088
2016-10-30T09:03:35.447Z,2952
2016-10-30T09:04:35.491Z,2852
2016-10-30T09:05:35.511Z,2896
2016-10-30T09:06:35.513Z,3064
2016-10-30T09:07:35.540Z,3304
2016-10-30T09:08:35.562Z,3644
2016-10-30T09:09:35.551Z,3984
2016-10-30T09:10:35.575Z,4348
2016-10-30T09:11:35.592Z,5004
2016-10-30T09:12:35.661Z,5880
2016-10-30T09:13:35.628Z,6472
2016-10-30T09:14:35.647Z,6508
2016-10-30T09:15:35.672Z,6328
2016-10-30T09:16:35.685Z,6016
2016-10-30T09:17:35.701Z,6004
2016-10-30T09:18:35.728Z,6448
2016-10-30T09:19:35.730Z,6868
2016-10-30T09:20:35.753Z,6916
2016-10-30T09:21:35.777Z,6636
2016-10-30T09:22:35.771Z,6384
2016-10-30T09:23:35.803Z,5756
2016-10-30T09:24:35.810Z,5144
2016-10-30T09:25:35.843Z,4984
2016-10-30T09:26:35.863Z,4832
2016-10-30T09:27:35.884Z,4492
2016-10-30T09:28:35.897Z,4300
2016-10-30T09:29:35.935Z,4188
2016-10-30T09:30:35.921Z,4384
2016-10-30T09:31:35.924Z,4572
2016-10-30T09:32:35.967Z,4856
2016-10-30T09:33:35.965Z,5112
2016-10-30T09:34:35.995Z,5240
2016-10-30T09:35:36.012Z,5224
2016-10-30T09:36:36.008Z,5000
2016-10-30T09:37:36.052Z,5084
2016-10-30T09:38:36.068Z,5008
2016-10-30T09:39:36.078Z,5060
2016-10-30T09:40:36.073Z,5060
2016-10-30T09:41:36.111Z,4476
2016-10-30T09:42:36.134Z,3612
2016-10-30T09:43:36.150Z,3068
2016-10-30T09:44:36.152Z,2980
2016-10-30T09:45:36.186Z,3128
2016-10-30T09:46:36.242Z,3340
2016-10-30T09:47:36.233Z,3636
2016-10-30T09:48:36.270Z,3864
2016-10-30T09:49:36.265Z,3840
2016-10-30T09:50:36.265Z,3628
2016-10-30T09:51:36.279Z,3452
2016-10-30T09:52:36.304Z,3620
2016-10-30T09:53:36.320Z,3836
2016-10-30T09:54:36.344Z,4076
2016-10-30T09:55:36.346Z,4308
2016-10-30T09:56:36.368Z,4484
2016-10-30T09:57:36.404Z,4772
2016-10-30T09:58:36.415Z,5060
2016-10-30T09:59:36.411Z,5320
2016-10-30T10:00:36.438Z,5436
2016-10-30T10:01:36.444Z,5464
2016-10-30T10:02:36.463Z,5432
2016-10-30T10:03:36.489Z,5404
2016-10-30T10:04:36.501Z,5456
2016-10-30T10:05:36.541Z,5860
2016-10-30T10:06:36.547Z,5628
2016-10-30T10:07:36.561Z,5704
2016-10-30T10:08:36.582Z,5612
2016-10-30T10:09:36.589Z,5472
2016-10-30T10:10:36.597Z,5252
2016-10-30T10:11:36.669Z,5144
2016-10-30T10:12:36.684Z,5052
2016-10-30T10:13:36.663Z,5012
2016-10-30T10:14:36.674Z,5068
2016-10-30T10:15:36.735Z,5212
2016-10-30T10:16:36.719Z,5348
2016-10-30T10:17:36.732Z,5480
2016-10-30T10:18:36.735Z,5668
2016-10-30T10:19:36.771Z,5984
2016-10-30T10:20:36.783Z,6288
2016-10-30T10:21:36.803Z,6428
2016-10-30T10:22:36.854Z,6680
2016-10-30T10:23:36.836Z,7056
2016-10-30T10:24:36.852Z,7560
2016-10-30T10:25:36.924Z,7140
2016-10-30T10:26:36.938Z,6700
2016-10-30T10:27:36.950Z,6612
2016-10-30T10:28:36.928Z,6472
2016-10-30T10:29:36.934Z,6084
2016-10-30T10:30:36.961Z,5540
2016-10-30T10:31:36.964Z,5096
2016-10-30T10:32:37.011Z,5184
2016-10-30T10:33:37.059Z,5724
2016-10-30T10:34:37.034Z,5948
2016-10-30T10:35:37.035Z,6012
2016-10-30T10:36:37.070Z,5600
2016-10-30T10:37:37.085Z,4556
2016-10-30T10:38:37.089Z,3216
2016-10-30T10:39:37.109Z,2724
2016-10-30T10:40:37.132Z,3028
2016-10-30T10:41:37.157Z,3840
2016-10-30T10:42:37.174Z,5052
2016-10-30T10:43:37.199Z,5692
2016-10-30T10:44:37.219Z,6120
2016-10-30T10:45:37.271Z,6820
2016-10-30T10:46:37.252Z,6580
2016-10-30T10:47:37.268Z,6096
2016-10-30T10:48:37.283Z,6116
2016-10-30T10:49:37.303Z,6472
2016-10-30T10:50:37.299Z,6868
2016-10-30T10:51:37.339Z,6908
2016-10-30T10:52:37.365Z,6716
2016-10-30T10:53:37.409Z,6592
2016-10-30T10:54:37.380Z,6748
2016-10-30T10:55:37.408Z,6744
2016-10-30T10:56:37.428Z,6560
2016-10-30T10:57:37.438Z,6316
2016-10-30T10:58:37.451Z,6200
2016-10-30T10:59:37.523Z,6080
2016-10-30T11:00:37.488Z,6016
2016-10-30T11:01:37.512Z,6372
2016-10-30T11:02:37.542Z,5956
2016-10-30T11:03:37.599Z,5668
2016-10-30T11:04:37.557Z,5336
2016-10-30T11:05:37.583Z,5156
2016-10-30T11:06:37.610Z,5088
2016-10-30T11:07:37.621Z,5460
2016-10-30T11:08:37.644Z,6108
2016-10-30T11:09:37.669Z,7000
2016-10-30T11:10:37.681Z,7152
2016-10-30T11:11:37.726Z,8080
2016-10-30T11:12:37.704Z,6996
2016-10-30T11:13:37.729Z,7088
2016-10-30T11:14:37.757Z,7112
2016-10-30T11:15:37.766Z,7352
2016-10-30T11:16:37.776Z,7668
2016-10-30T11:17:37.799Z,6800
2016-10-30T11:18:37.810Z,7020
2016-10-30T11:19:37.836Z,7224
2016-10-30T11:20:37.846Z,7896
2016-10-30T11:21:37.878Z,7672
2016-10-30T11:22:37.898Z,8008
2016-10-30T11:23:37.907Z,7380
2016-10-30T11:24:37.941Z,7588
2016-10-30T11:25:37.959Z,7328
2016-10-30T11:26:37.953Z,6344
2016-10-30T11:27:37.988Z,5384
2016-10-30T11:28:38.035Z,5620
2016-10-30T11:29:38.006Z,6376
2016-10-30T11:30:38.028Z,6684
2016-10-30T11:31:38.060Z,6208
2016-10-30T11:32:38.070Z,7084
2016-10-30T11:33:38.079Z,7648
2016-10-30T11:34:38.116Z,8196
2016-10-30T11:35:38.137Z,7952
2016-10-30T11:36:38.158Z,6796
2016-10-30T11:37:38.161Z,5212
2016-10-30T11:38:38.187Z,4680
2016-10-30T11:39:38.203Z,4564
2016-10-30T11:40:38.226Z,4548
2016-10-30T11:41:38.236Z,4424
2016-10-30T11:42:38.252Z,4196
2016-10-30T11:43:38.273Z,3864
2016-10-30T11:44:38.299Z,3500
2016-10-30T11:45:38.315Z,3188
2016-10-30T11:46:38.331Z,3060
2016-10-30T11:47:38.338Z,3120
2016-10-30T11:48:38.897Z,3320
2016-10-30T11:49:38.387Z,3572
2016-10-30T11:50:38.396Z,3816
2016-10-30T11:51:38.410Z,3880
2016-10-30T11:52:38.447Z,3844
2016-10-30T11:53:38.450Z,4000
2016-10-30T11:54:38.507Z,4124
2016-10-30T11:55:38.485Z,4136
2016-10-30T11:56:38.550Z,4284
2016-10-30T11:57:38.526Z,4548
2016-10-30T11:58:38.574Z,4832
2016-10-30T11:59:38.563Z,5332
2016-10-30T12:00:38.593Z,5636
2016-10-30T12:01:38.592Z,5340
2016-10-30T12:02:38.624Z,5060
2016-10-30T12:03:38.634Z,4776
2016-10-30T12:04:38.647Z,4572
2016-10-30T12:05:38.668Z,4440
2016-10-30T12:06:38.709Z,4404
2016-10-30T12:07:38.715Z,4364
2016-10-30T12:08:38.735Z,4296
2016-10-30T12:09:38.732Z,4216
2016-10-30T12:10:38.763Z,4196
2016-10-30T12:11:38.784Z,4216
2016-10-30T12:12:38.786Z,4212
2016-10-30T12:13:38.798Z,4256
2016-10-30T12:14:38.838Z,4372
2016-10-30T12:15:38.854Z,4528
2016-10-30T12:16:38.894Z,4700
2016-10-30T12:17:38.880Z,4920
2016-10-30T12:18:38.903Z,5136
2016-10-30T12:19:38.955Z,5296
2016-10-30T12:20:38.954Z,5352
2016-10-30T12:21:38.960Z,5328
2016-10-30T12:22:38.971Z,5184
2016-10-30T12:23:38.981Z,5324
2016-10-30T12:24:38.989Z,4924
2016-10-30T12:25:39.034Z,4852
2016-10-30T12:26:39.050Z,4804
2016-10-30T12:27:39.049Z,4816
2016-10-30T12:28:39.089Z,4872
2016-10-30T12:29:39.093Z,4876
2016-10-30T12:30:39.111Z,4832
2016-10-30T12:31:39.127Z,4776
2016-10-30T12:32:39.156Z,4716
2016-10-30T12:33:39.172Z,4656
2016-10-30T12:34:39.206Z,4604
2016-10-30T12:35:39.205Z,4560
2016-10-30T12:36:39.226Z,4456
2016-10-30T12:37:39.249Z,4312
2016-10-30T12:38:39.273Z,4164
2016-10-30T12:39:39.255Z,4024
2016-10-30T12:40:39.314Z,3928
2016-10-30T12:41:39.302Z,3860
2016-10-30T12:42:39.319Z,3820
2016-10-30T12:43:39.361Z,3760
2016-10-30T12:44:39.382Z,3736
2016-10-30T12:45:39.386Z,3756
2016-10-30T12:46:39.731Z,3836
2016-10-30T12:47:39.406Z,3872
2016-10-30T12:48:39.455Z,3880
2016-10-30T12:49:39.453Z,3844
2016-10-30T12:50:39.469Z,3892
2016-10-30T12:51:39.497Z,3928
2016-10-30T12:52:39.523Z,3912
2016-10-30T12:53:39.536Z,3952
2016-10-30T12:54:39.554Z,4044
2016-10-30T12:55:39.578Z,4152
2016-10-30T12:56:39.601Z,4132
2016-10-30T12:57:39.604Z,4400
2016-10-30T12:58:39.608Z,4724
2016-10-30T12:59:39.685Z,4344
2016-10-30T13:00:39.642Z,5016
2016-10-30T13:01:39.720Z,3944
2016-10-30T13:02:39.740Z,3972
2016-10-30T13:03:39.712Z,4016
2016-10-30T13:04:39.735Z,4056
2016-10-30T13:05:39.751Z,3924
2016-10-30T13:06:39.758Z,4412
2016-10-30T13:07:39.779Z,3416
2016-10-30T13:08:39.806Z,3148
2016-10-30T13:09:39.815Z,3008
2016-10-30T13:10:39.848Z,3016
2016-10-30T13:11:39.860Z,3112
2016-10-30T13:12:39.889Z,3208
2016-10-30T13:13:39.888Z,3500
2016-10-30T13:14:39.919Z,3708
2016-10-30T13:15:39.927Z,4080
2016-10-30T13:16:39.951Z,4088
2016-10-30T13:17:39.947Z,4196
2016-10-30T13:18:39.985Z,4256
2016-10-30T13:19:40.005Z,4344
2016-10-30T13:20:40.037Z,4096
2016-10-30T13:21:40.047Z,3664
2016-10-30T13:22:40.093Z,3376
2016-10-30T13:23:40.080Z,3120
2016-10-30T13:24:40.101Z,3156
2016-10-30T13:25:40.110Z,3240
2016-10-30T13:26:40.133Z,3040
2016-10-30T13:27:40.159Z,3340
2016-10-30T13:28:40.157Z,3328
2016-10-30T13:29:40.190Z,2916
2016-10-30T13:30:40.210Z,2648
2016-10-30T13:31:40.217Z,2600
2016-10-30T13:32:40.237Z,2420
2016-10-30T13:33:40.254Z,2264
2016-10-30T13:34:40.284Z,2376
2016-10-30T13:35:40.295Z,2404
2016-10-30T13:36:40.324Z,2508
2016-10-30T13:37:40.311Z,2704
2016-10-30T13:38:40.358Z,2616
2016-10-30T13:39:40.372Z,2464
2016-10-30T13:40:40.370Z,2488
2016-10-30T13:41:40.395Z,2644
2016-10-30T13:42:40.446Z,2852
2016-10-30T13:43:40.421Z,2816
2016-10-30T13:44:40.454Z,2736
2016-10-30T13:45:40.472Z,2576
2016-10-30T13:46:40.484Z,2480
2016-10-30T13:47:40.504Z,2448
2016-10-30T13:48:40.521Z,2480
2016-10-30T13:49:40.547Z,2552
2016-10-30T13:50:40.571Z,2640
2016-10-30T13:51:40.575Z,2772
2016-10-30T13:52:40.588Z,2936
2016-10-30T13:53:40.622Z,3076
2016-10-30T13:54:40.626Z,3176
2016-10-30T13:55:40.651Z,3260
2016-10-30T13:56:40.655Z,3380
2016-10-30T13:57:40.693Z,3408